CSUN Campus Station - National Weather Service Data Page - PST Time




                Date      RH     Dew  Seasonal     Current   Max Air   Min Air    Wind    Wind    Wind    Gust     Bar    Rain
                Time       %   Point      Rain    Air Temp     Since     Since   Speed    Gust     Dir     Dir   Press   Total
                               Deg F    Inches       Deg F  Midnight  Midnight     MPH     MPH                      mb  Inches
------------------------------------------------------------------------------------------------------------------------------
    04/26/2017 00:00      29    32.5     20.73        65.8      75.0      58.0       6      15     305     336    1011    0.00
    04/26/2017 00:10      29    32.5     20.73        66.1      66.3      65.8       5      16     327     326    1011    0.00
    04/26/2017 00:20      29    32.6     20.73        66.0      66.3      65.8       5      17     352       9    1011    0.00
    04/26/2017 00:30      29    32.8     20.73        66.0      66.3      65.7       2      10     358      28    1011    0.00
    04/26/2017 00:40      29    33.0     20.73        65.3      66.3      64.9       2       8     192     204    1011    0.00
    04/26/2017 00:50      28    32.6     20.73        66.4      66.8      64.9       3      10     150     168    1011    0.00
    04/26/2017 01:00      30    32.9     20.73        66.1      66.8      64.9       2       6      85      82    1011    0.00
    04/26/2017 01:10      30    33.1     20.73        65.2      66.8      64.7       2       9     169     245    1011    0.00
    04/26/2017 01:20      30    33.0     20.73        65.7      66.8      64.7       1       6      14      32    1011    0.00
    04/26/2017 01:30      29    33.2     20.73        65.3      66.8      64.7       5      12      48      32    1011    0.00
    04/26/2017 01:40      30    33.2     20.73        66.0      66.8      64.7       4       9     347     343    1011    0.00
    04/26/2017 01:50      29    33.2     20.73        66.0      66.8      64.7       2       7     163     186    1011    0.00
    04/26/2017 02:00      29    33.0     20.73        66.0      66.8      64.7       2       7     318     297    1011    0.00
    04/26/2017 02:10      30    33.1     20.73        65.7      66.8      64.7       3      10      75      99    1010    0.00
    04/26/2017 02:20      31    33.3     20.73        65.0      66.8      64.5       4      10      97      92    1010    0.00
    04/26/2017 02:30      31    33.2     20.73        64.5      66.8      64.3       5       9      57      69    1011    0.00
    04/26/2017 02:40      29    32.8     20.73        65.1      66.8      64.3       3       8      17      39    1011    0.00
    04/26/2017 02:50      29    32.6     20.73        65.3      66.8      64.3       2       7      25     334    1011    0.00
    04/26/2017 03:00      30    32.4     20.73        65.1      66.8      64.3       0       3      68      80    1011    0.00
    04/26/2017 03:10      28    31.9     20.73        65.1      66.8      64.3       2      10      12     337    1011    0.00
    04/26/2017 03:20      27    31.2     20.73        65.8      66.8      64.3       5      14     336     321    1011    0.00
    04/26/2017 03:30      27    31.2     20.73        65.7      66.8      64.3       4       9     325     335    1011    0.00
    04/26/2017 03:40      29    31.4     20.73        65.2      66.8      64.3       5      10     330     328    1011    0.00
    04/26/2017 03:50      28    31.3     20.73        64.8      66.8      64.3       5      13     332      21    1011    0.00
    04/26/2017 04:00      27    30.8     20.73        65.2      66.8      64.3       6      16     339     344    1010    0.00
    04/26/2017 04:10      29    31.1     20.73        64.9      66.8      64.3       5      13       0     337    1010    0.00
    04/26/2017 04:20      30    31.8     20.73        64.0      66.8      63.5       4      11     348     340    1010    0.00
    04/26/2017 04:30      31    31.9     20.73        63.8      66.8      63.5       3      13     357     331    1011    0.00
    04/26/2017 04:40      29    31.6     20.73        64.3      66.8      63.5       3      11     330     339    1011    0.00
    04/26/2017 04:50      28    31.6     20.73        64.9      66.8      63.5       4      16     328     335    1010    0.00
    04/26/2017 05:00      28    31.4     20.73        65.4      66.8      63.5       6      15     331     346    1011    0.00
    04/26/2017 05:10      28    31.7     20.73        65.5      66.8      63.5       8      21     337     312    1011    0.00
    04/26/2017 05:20      29    32.2     20.73        65.5      66.8      63.5       7      19     342     343    1011    0.00
    04/26/2017 05:30      29    32.4     20.73        65.8      66.8      63.5       8      20     336     343    1010    0.00
    04/26/2017 05:40      29    32.8     20.73        65.9      66.8      63.5       9      25     336     349    1010    0.00
    04/26/2017 05:50      29    33.2     20.73        66.1      66.8      63.5       9      20     337     324    1010    0.00
    04/26/2017 06:00      30    33.5     20.73        66.2      66.8      63.5       8      20     338     339    1011    0.00
    04/26/2017 06:10      30    33.8     20.73        66.3      66.8      63.5       7      16     329     341    1011    0.00
    04/26/2017 06:20      32    34.4     20.73        65.7      66.8      63.5       4      14     322     339    1011    0.00
    04/26/2017 06:30      28    33.9     20.73        66.2      67.5      63.5       5      14     318     333    1011    0.00
    04/26/2017 06:40      26    32.5     20.73        68.1      68.8      63.5       8      22     332     347    1011    0.00
    04/26/2017 06:50      25    32.1     20.73        68.8      69.0      63.5       6      16     336       4    1011    0.00
    04/26/2017 07:00      27    32.6     20.73        68.9      69.2      63.5       4      10     342     336    1011    0.00
    04/26/2017 07:10      25    32.9     20.73        68.8      69.3      63.5       3       8     328     350    1012    0.00
    04/26/2017 07:20      25    32.9     20.73        69.8      70.2      63.5       1       3     310     257    1012    0.00
    04/26/2017 07:30      26    33.6     20.73        70.2      70.5      63.5       2       6     325     325    1012    0.00
    04/26/2017 07:40      26    34.2     20.73        70.2      70.5      63.5       3       8     345      75    1012    0.00
    04/26/2017 07:50      25    33.7     20.73        70.5      70.8      63.5       6      15     340      22    1012    0.00
    04/26/2017 08:00      26    33.8     20.73        70.3      70.8      63.5       7      15     338     346    1012    0.00
    04/26/2017 08:10      27    34.8     20.73        71.2      71.8      63.5       5      11     302     311    1012    0.00
    04/26/2017 08:20      26    35.3     20.73        71.2      72.0      63.5       4      14     302     351    1012    0.00
    04/26/2017 08:30      25    35.5     20.73        72.9      73.7      63.5       3       9     306     290    1011    0.00
    04/26/2017 08:40      25    34.9     20.73        73.1      73.7      63.5       4      13     329     316    1011    0.00
    04/26/2017 08:50      24    35.1     20.73        73.8      74.2      63.5       4      11     339     306    1012    0.00
    04/26/2017 09:00      22    34.6     20.73        74.6      75.2      63.5       6      19     331      18    1012    0.00
    04/26/2017 09:10      24    34.6     20.73        74.7      75.2      63.5       5      16     321       2    1012    0.00
    04/26/2017 09:20      22    36.0     20.73        75.8      76.9      63.5       4      16     303     308    1012    0.00
    04/26/2017 09:30      24    36.0     20.73        76.8      77.4      63.5       4      11     310     297    1012    0.00
    04/26/2017 09:40      24    35.9     20.73        75.7      77.4      63.5       6      17     326     338    1012    0.00
    04/26/2017 09:50      22    36.6     20.73        78.1      78.9      63.5       5      11     311     336    1012    0.00
    04/26/2017 10:00      23    36.2     20.73        77.7      78.9      63.5       5      11     317     307    1012    0.00
    04/26/2017 10:10      22    36.5     20.73        78.6      79.3      63.5       6      15     336     342    1012    0.00
    04/26/2017 10:20      23    36.9     20.73        78.5      79.3      63.5       5      13     297     270    1012    0.00
    04/26/2017 10:30      24    37.5     20.73        77.2      79.3      63.5       4       8     282     285    1012    0.00
    04/26/2017 10:40      25    38.2     20.73        76.9      79.3      63.5       4       8     284     281    1011    0.00
    04/26/2017 10:50      25    39.0     20.73        77.9      79.3      63.5       6      14     285     257    1011    0.00
    04/26/2017 11:00      24    39.4     20.73        78.5      79.5      63.5       4      10     300     278    1011    0.00
    04/26/2017 11:10      23    39.9     20.73        79.9      80.7      63.5       5       9     292     306    1011    0.00
    04/26/2017 11:20      23    39.7     20.73        80.0      80.7      63.5       5      11     302     330    1011    0.00
    04/26/2017 11:30      23    40.4     20.73        81.3      82.5      63.5       5      13     310     351    1011    0.00
    04/26/2017 11:40      23    41.1     20.73        82.8      83.7      63.5       4      15     332     307    1011    0.00
    04/26/2017 11:50      22    41.5     20.73        83.5      84.2      63.5       5      14     327       2    1011    0.00
    04/26/2017 12:00      24    41.0     20.73        82.4      84.2      63.5       6      13     324     338    1011    0.00
    04/26/2017 12:10      23    41.5     20.73        82.4      84.2      63.5       6      16     333     338    1010    0.00
    04/26/2017 12:20      24    41.8     20.73        82.3      84.2      63.5       6      16     320     332    1010    0.00
    04/26/2017 12:30      24    41.9     20.73        82.1      84.2      63.5       5      14     324     329    1010    0.00
    04/26/2017 12:40      25    42.3     20.73        81.6      84.2      63.5       8      18     327     330    1010    0.00
    04/26/2017 12:50      25    42.7     20.73        81.5      84.2      63.5       7      22     335     321    1010    0.00
    04/26/2017 13:00      26    42.8     20.73        81.7      84.2      63.5       6      17     332     333    1010    0.00
    04/26/2017 13:10      27    42.9     20.73        81.1      84.2      63.5       7      17     346     340    1010    0.00
    04/26/2017 13:20      26    43.0     20.73        80.8      84.2      63.5       7      17     340     325    1010    0.00
    04/26/2017 13:30      26    43.0     20.73        81.7      84.2      63.5       7      16     344     348    1010    0.00
    04/26/2017 13:40      25    42.9     20.73        82.0      84.2      63.5       5      14     338     347    1010    0.00
    04/26/2017 13:50      25    42.8     20.73        81.6      84.2      63.5       5      15     343     346    1010    0.00
    04/26/2017 14:00      26    43.1     20.73        81.6      84.2      63.5       6      17     339     334    1010    0.00
    04/26/2017 14:10      26    43.6     20.73        82.1      84.2      63.5       5      12     338     314    1010    0.00
    04/26/2017 14:20      26    44.0     20.73        82.3      84.2      63.5       5      15     337     334    1009    0.00
    04/26/2017 14:30      25    44.1     20.73        82.5      84.2      63.5       7      18     345     342    1009    0.00
    04/26/2017 14:40      25    44.0     20.73        83.1      84.2      63.5       6      12     336     334    1009    0.00
    04/26/2017 14:50      24    44.2     20.73        84.3      85.1      63.5       4      14     337     336    1009    0.00
    04/26/2017 15:00      24    43.8     20.73        84.2      85.1      63.5       5      12     338     342    1009    0.00
    04/26/2017 15:10      25    44.4     20.73        84.7      85.1      63.5       5      12     343     313    1009    0.00
    04/26/2017 15:20      26    44.5     20.73        84.2      85.4      63.5       5      14     348     349    1009    0.00
    04/26/2017 15:30      26    44.3     20.73        83.1      85.4      63.5       5      15     343     324    1009    0.00
    04/26/2017 15:40      26    44.3     20.73        82.8      85.4      63.5       5      12     344     324    1009    0.00
    04/26/2017 15:50      26    44.2     20.73        82.3      85.4      63.5       5      12       3      24    1009    0.00
    04/26/2017 16:00      28    44.1     20.73        81.5      85.4      63.5       6      19     344     339    1009    0.00
    04/26/2017 16:10      29    44.3     20.73        80.0      85.4      63.5       6      14     344     339    1009    0.00
    04/26/2017 16:20      29    44.6     20.73        79.5      85.4      63.5       5      16     339     312    1009    0.00
    04/26/2017 16:30      30    44.9     20.73        79.3      85.4      63.5       5      15     337     324    1009    0.00
    04/26/2017 16:40      30    45.3     20.73        79.3      85.4      63.5       6      17     339      10    1009    0.00
    04/26/2017 16:50      30    45.5     20.73        79.6      85.4      63.5       6      20     339     314    1009    0.00
    04/26/2017 17:00      30    45.8     20.73        79.8      85.4      63.5       5      15     340     355    1009    0.00
    04/26/2017 17:10      31    46.1     20.73        80.0      85.4      63.5       6      13     342     343    1009    0.00
    04/26/2017 17:20      31    46.2     20.73        79.7      85.4      63.5       6      16     337     330    1009    0.00
    04/26/2017 17:30      32    46.4     20.73        79.3      85.4      63.5       6      13     352       8    1009    0.00
    04/26/2017 17:40      32    46.5     20.73        78.8      85.4      63.5       7      18     351     339    1009    0.00
    04/26/2017 17:50      33    46.6     20.73        78.4      85.4      63.5       7      17     348     335    1009    0.00
    04/26/2017 18:00      34    46.7     20.73        77.8      85.4      63.5       6      16     339     338    1009    0.00
    04/26/2017 18:10      35    46.9     20.73        77.1      85.4      63.5       6      17     347     335    1009    0.00
    04/26/2017 18:20      36    47.0     20.73        76.5      85.4      63.5       6      17     355     326    1009    0.00
    04/26/2017 18:30      36    46.9     20.73        75.9      85.4      63.5       6      14     344     312    1009    0.00
    04/26/2017 18:40      37    46.9     20.73        75.5      85.4      63.5       5      17     347     300    1009    0.00
    04/26/2017 18:50      37    46.9     20.73        75.1      85.4      63.5       6      16     349     338    1009    0.00
    04/26/2017 19:00      38    47.0     20.73        74.7      85.4      63.5       4      15     340     326    1009    0.00
    04/26/2017 19:10      38    47.2     20.73        74.4      85.4      63.5       6      16     351     347    1009    0.00
    04/26/2017 19:20      39    47.4     20.73        74.1      85.4      63.5       5      15     350     335    1009    0.00
    04/26/2017 19:30      39    47.5     20.73        73.9      85.4      63.5       6      18     346      29    1009    0.00
    04/26/2017 19:40      39    47.5     20.73        73.8      85.4      63.5       6      20     347     355    1009    0.00
    04/26/2017 19:50      39    47.5     20.73        73.7      85.4      63.5       5      12     358       4    1009    0.00
    04/26/2017 20:00      40    47.5     20.73        73.7      85.4      63.5       5      13     348     333    1009    0.00
    04/26/2017 20:10      39    47.6     20.73        73.7      85.4      63.5       7      15     348     326    1009    0.00
    04/26/2017 20:20      39    47.5     20.73        73.7      85.4      63.5       5      16     342     346    1009    0.00
    04/26/2017 20:30      40    47.4     20.73        73.6      85.4      63.5       7      19     341     352    1009    0.00
    04/26/2017 20:40      40    47.5     20.73        73.4      85.4      63.5       4      16     335     336    1009    0.00
    04/26/2017 20:50      40    47.4     20.73        73.2      85.4      63.5       4      13     334     336    1009    0.00
    04/26/2017 21:00      40    47.4     20.73        73.0      85.4      63.5       4      12     341      21    1009    0.00
    04/26/2017 21:10      40    47.2     20.73        73.0      85.4      63.5       5      17     338     351    1009    0.00
    04/26/2017 21:20      40    47.3     20.73        72.8      85.4      63.5       5      14     337     314    1009    0.00
    04/26/2017 21:30      41    47.3     20.73        72.6      85.4      63.5       5      14     336     335    1009    0.00
    04/26/2017 21:40      41    47.4     20.73        72.3      85.4      63.5       4      13     342     326    1009    0.00
    04/26/2017 21:50      41    47.5     20.73        72.2      85.4      63.5       6      19     342     328    1009    0.00
    04/26/2017 22:00      41    47.3     20.73        72.3      85.4      63.5       6      16     348     341    1009    0.00
    04/26/2017 22:10      41    47.3     20.73        72.2      85.4      63.5       5      18     339       3    1009    0.00
    04/26/2017 22:20      41    47.3     20.73        72.0      85.4      63.5       7      19     343     352    1009    0.00
    04/26/2017 22:30      42    47.2     20.73        71.9      85.4      63.5       6      18     340     340    1009    0.00
    04/26/2017 22:40      42    47.3     20.73        71.7      85.4      63.5       6      15     346     343    1009    0.00
    04/26/2017 22:50      42    47.3     20.73        71.5      85.4      63.5       5      15     335     324    1009    0.00
    04/26/2017 23:00      42    47.2     20.73        71.2      85.4      63.5       6      16     340     346    1009    0.00
    04/26/2017 23:10      42    46.9     20.73        71.1      85.4      63.5       7      19     331     343    1009    0.00
    04/26/2017 23:20      42    46.6     20.73        70.9      85.4      63.5       7      21     343     330    1009    0.00
    04/26/2017 23:30      42    46.5     20.73        70.6      85.4      63.5       6      16     347     334    1009    0.00
    04/26/2017 23:40      43    46.6     20.73        70.3      85.4      63.5       6      15     342      14    1009    0.00
    04/26/2017 23:50      43    46.6     20.73        70.2      85.4      63.5       6      18     344     332    1009    0.00
    04/27/2017 00:00      44    46.8     20.73        69.8      85.4      63.5       7      19     341     331    1009    0.00
    04/27/2017 00:10      44    46.7     20.73        69.8      70.0      69.5       7      17     340     329    1008    0.00
    04/27/2017 00:20      44    46.6     20.73        69.6      70.0      69.4       7      18     345       2    1008    0.00
    04/27/2017 00:30      43    46.3     20.73        69.7      70.0      69.4       8      22     338     338    1008    0.00
    04/27/2017 00:40      44    46.4     20.73        69.5      70.0      69.3       8      21     337     316    1008    0.00
    04/27/2017 00:50      43    46.2     20.73        69.3      70.0      69.1       8      22     341     325    1008    0.00
    04/27/2017 01:00      43    46.0     20.73        69.2      70.0      69.0       8      20     339     336    1008    0.00
    04/27/2017 01:10      43    45.9     20.73        69.0      70.0      68.7       6      17     338     347    1008    0.00
    04/27/2017 01:20      44    45.9     20.73        68.9      70.0      68.7       7      19     343     344    1008    0.00
    04/27/2017 01:30      44    45.9     20.73        68.8      70.0      68.5       8      24     348     351    1008    0.00
    04/27/2017 01:40      43    45.7     20.73        68.6      70.0      68.4       7      20     345     337    1008    0.00
    04/27/2017 01:50      43    45.3     20.73        68.5      70.0      68.3       7      17     344     343    1008    0.00
    04/27/2017 02:00      43    45.0     20.73        68.4      70.0      68.1       7      23     344       0    1008    0.00
    04/27/2017 02:10      43    44.8     20.73        68.3      70.0      68.1       7      23     348     344    1008    0.00
    04/27/2017 02:20      43    44.8     20.73        68.0      70.0      67.7       7      21     341     325    1008    0.00
    04/27/2017 02:30      43    44.8     20.73        68.0      70.0      67.7       8      23     344     332    1008    0.00
    04/27/2017 02:40      44    44.9     20.73        67.7      70.0      67.5       6      19     344     340    1008    0.00
    04/27/2017 02:50      44    44.8     20.73        67.5      70.0      67.3       6      17     349     331    1008    0.00
    04/27/2017 03:00      44    44.7     20.73        67.4      70.0      67.2       8      22     342     341    1008    0.00
    04/27/2017 03:10      43    44.5     20.73        67.3      70.0      67.2       8      18     346     335    1008    0.00
    04/27/2017 03:20      44    44.3     20.73        67.2      70.0      67.0       7      22     347     345    1008    0.00
    04/27/2017 03:30      44    44.3     20.73        67.1      70.0      66.9       9      31     346       0    1008    0.00
    04/27/2017 03:40      44    44.3     20.73        66.8      70.0      66.5       6      19     350       0    1008    0.00
    04/27/2017 03:50      44    44.2     20.73        66.6      70.0      66.4       7      17     353     332    1008    0.00
    04/27/2017 04:00      44    43.9     20.73        66.6      70.0      66.4       7      16     355     335    1008    0.00
    04/27/2017 04:10      42    43.5     20.73        66.6      70.0      66.4       7      16     349      15    1008    0.00
    04/27/2017 04:20      44    43.4     20.73        66.6      70.0      66.3       8      18     343     329    1008    0.00
    04/27/2017 04:30      45    43.8     20.73        66.3      70.0      66.1       7      19     343     355    1008    0.00
    04/27/2017 04:40      46    44.1     20.73        66.0      70.0      65.7       5      15     346     343    1008    0.00
    04/27/2017 04:50      45    44.1     20.73        65.8      70.0      65.7       6      17     350     345    1008    0.00
    04/27/2017 05:00      44    43.9     20.73        65.8      70.0      65.7       6      14     348     353    1008    0.00
    04/27/2017 05:10      43    43.4     20.73        66.0      70.0      65.7       6      15     358      26    1008    0.00
    04/27/2017 05:20      43    42.9     20.73        66.1      70.0      65.7       8      24     345     338    1008    0.00
    04/27/2017 05:30      43    43.0     20.73        66.0      70.0      65.7       8      20     342      49    1008    0.00
    04/27/2017 05:40      44    43.1     20.73        65.9      70.0      65.7       5      17     342     323    1008    0.00
    04/27/2017 05:50      43    42.9     20.73        65.8      70.0      65.7       5      16     356     327    1008    0.00
    04/27/2017 06:00      42    42.4     20.73        66.0      70.0      65.7       8      21     348     338    1009    0.00
    04/27/2017 06:10      42    42.4     20.73        66.1      70.0      65.7       8      22     343     318    1009    0.00
    04/27/2017 06:20      41    42.2     20.73        66.6      70.0      65.7       8      22     339     333    1008    0.00
    04/27/2017 06:30      40    42.2     20.73        67.1      70.0      65.7       9      24     346     337    1009    0.00
    04/27/2017 06:40      41    42.2     20.73        66.9      70.0      65.7       9      23     341     355    1009    0.00
    04/27/2017 06:50      41    42.5     20.73        66.6      70.0      65.7      10      27     336     348    1009    0.00
    04/27/2017 07:00      41    42.4     20.73        66.8      70.0      65.7       9      22     336     352    1009    0.00
    04/27/2017 07:10      42    42.7     20.73        66.8      70.0      65.7      10      33     341     338    1009    0.00
    04/27/2017 07:20      42    42.9     20.73        66.8      70.0      65.7      14      25     330     341    1009    0.00
    04/27/2017 07:30      41    42.9     20.73        67.1      70.0      65.7      11      27     320     319    1009    0.00
    04/27/2017 07:40      41    42.9     20.73        66.9      70.0      65.7      12      27     322     328    1009    0.00
    04/27/2017 07:50      39    42.6     20.73        67.4      70.0      65.7      10      25     320      14    1009    0.00
    04/27/2017 08:00      38    41.8     20.73        68.0      70.0      65.7      10      24     330     337    1009    0.00
    04/27/2017 08:10      37    41.7     20.73        68.2      70.0      65.7      10      25     332     334    1009    0.00
    04/27/2017 08:20      34    40.8     20.73        69.4      70.0      65.7       7      17     334     338    1009    0.00
    04/27/2017 08:30      33    39.7     20.73        70.2      70.6      65.7       7      22     330     326    1009    0.00
    04/27/2017 08:40      32    40.0     20.73        70.9      71.4      65.7       6      16     331     327    1009    0.00
    04/27/2017 08:50      33    39.7     20.73        70.7      71.4      65.7       7      19     327     328    1009    0.00
    04/27/2017 09:00      30    39.3     20.73        71.0      71.8      65.7       8      21     328       0    1009    0.00
    04/27/2017 09:10      30    38.6     20.73        71.7      72.0      65.7       9      28     321     329    1009    0.00
    04/27/2017 09:20      30    39.0     20.73        71.5      72.0      65.7       7      18     315     340    1009    0.00
    04/27/2017 09:30      32    39.1     20.73        71.5      72.1      65.7       9      22     334     292    1009    0.00
    04/27/2017 09:40      33    40.0     20.73        71.2      72.1      65.7       9      27     335     352    1009    0.00
    04/27/2017 09:50      31    39.9     20.73        71.7      72.2      65.7       9      31     344     335    1009    0.00
    04/27/2017 10:00      32    39.7     20.73        71.7      72.2      65.7       9      27     336     266    1009    0.00
    04/27/2017 10:10      32    39.9     20.73        71.7      72.2      65.7      10      25     335     314    1009    0.00
    04/27/2017 10:20      30    39.4     20.73        72.2      72.6      65.7       9      22     340     329    1009    0.00
    04/27/2017 10:30      30    39.7     20.73        73.0      73.2      65.7       8      22     347     331    1009    0.00
    04/27/2017 10:40      29    39.4     20.73        73.1      74.1      65.7       9      22     349     319    1009    0.00
    04/27/2017 10:50      29    39.7     20.73        73.2      74.1      65.7       9      24     349       1    1009    0.00
    04/27/2017 11:00      29    39.8     20.73        73.2      74.1      65.7      10      21     347     343    1009    0.00
    04/27/2017 11:10      30    40.0     20.73        73.4      74.1      65.7      11      22     339     352    1009    0.00
    04/27/2017 11:20      28    39.5     20.73        74.1      74.6      65.7       8      21     330     333    1009    0.00
    04/27/2017 11:30      28    38.8     20.73        74.1      74.6      65.7      10      23     338     352    1008    0.00
    04/27/2017 11:40      28    39.1     20.73        74.4      74.9      65.7       9      20     335     340    1008    0.00
    04/27/2017 11:50      28    38.5     20.73        73.8      74.9      65.7       9      26     331     336    1008    0.00
    04/27/2017 12:00      28    38.8     20.73        73.6      74.9      65.7      10      22     324     334    1008    0.00
    04/27/2017 12:10      27    38.3     20.73        73.9      74.9      65.7      12      26     330     336    1008    0.00
    04/27/2017 12:20      27    38.3     20.73        74.6      75.0      65.7      11      26     331     333    1008    0.00
    04/27/2017 12:30      27    38.7     20.73        74.7      75.4      65.7       9      22     335     347    1008    0.00
    04/27/2017 12:40      26    38.7     20.73        75.8      76.2      65.7       9      19     341     322    1008    0.00
    04/27/2017 12:50      26    38.3     20.73        75.6      76.2      65.7      12      26     332     321    1008    0.00
    04/27/2017 13:00      26    37.9     20.73        75.5      76.2      65.7      10      27     331     340    1008    0.00
    04/27/2017 13:10      25    38.3     20.73        76.1      76.5      65.7       9      31     337     339    1008    0.00
    04/27/2017 13:20      25    37.7     20.73        75.7      76.5      65.7      10      25     332     344    1007    0.00
    04/27/2017 13:30      26    37.6     20.73        75.4      76.5      65.7       9      21     335     339    1007    0.00
    04/27/2017 13:40      25    37.5     20.73        75.0      76.5      65.7       9      21     338     338    1007    0.00
    04/27/2017 13:50      25    36.8     20.73        75.3      76.5      65.7      11      24     320     337    1007    0.00
    04/27/2017 14:00      27    37.1     20.73        74.9      76.5      65.7      10      21     317     314    1007    0.00
    04/27/2017 14:10      25    36.8     20.73        74.2      76.5      65.7      10      24     323     344    1007    0.00
    04/27/2017 14:20      24    36.4     20.73        74.5      76.5      65.7      10      24     331     343    1007    0.00
    04/27/2017 14:30      23    36.2     20.73        75.7      76.5      65.7       8      23     328       0    1007    0.00
    04/27/2017 14:40      23    35.5     20.73        76.2      76.7      65.7       8      23     326     335    1007    0.00
    04/27/2017 14:50      23    35.9     20.73        75.9      76.7      65.7       8      19     338     335    1007    0.00
    04/27/2017 15:00      22    35.6     20.73        76.7      77.2      65.7       8      19     330     324    1007    0.00
    04/27/2017 15:10      22    34.6     20.73        76.8      77.2      65.7       8      23     322     339    1006    0.00
    04/27/2017 15:20      20    33.8     20.73        77.2      77.4      65.7       8      18     325     300    1007    0.00
    04/27/2017 15:30      21    34.0     20.73        77.1      77.7      65.7       9      22     325     350    1007    0.00
    04/27/2017 15:40      20    33.5     20.73        77.0      77.7      65.7      10      23     330     319    1007    0.00
    04/27/2017 15:50      18    32.9     20.73        77.7      78.1      65.7       6      17     322     349    1007    0.00
    04/27/2017 16:00      21    31.9     20.73        77.5      78.1      65.7       9      28     328     343    1007    0.00
    04/27/2017 16:10      20    33.4     20.73        76.9      78.1      65.7       9      20     335     326    1007    0.00
    04/27/2017 16:20      19    31.8     20.73        76.9      78.1      65.7       9      23     329       0    1007    0.00
    04/27/2017 16:30      18    30.6     20.73        76.6      78.1      65.7       9      20     326     347    1007    0.00
    04/27/2017 16:40      18    30.7     20.73        76.8      78.1      65.7       7      19     326     297    1007    0.00
    04/27/2017 16:50      21    31.4     20.73        76.6      78.1      65.7       9      21     335     320    1007    0.00
    04/27/2017 17:00      21    32.6     20.73        75.8      78.1      65.7      10      21     338     337    1007    0.00
    04/27/2017 17:10      21    32.6     20.73        75.4      78.1      65.7      11      25     338     336    1007    0.00
    04/27/2017 17:20      20    32.5     20.73        75.1      78.1      65.7       9      24     337     324    1007    0.00
    04/27/2017 17:30      22    32.6     20.73        74.8      78.1      65.7       9      22     333     329    1007    0.00
    04/27/2017 17:40      22    32.6     20.73        74.4      78.1      65.7       8      17     337     338    1007    0.00
    04/27/2017 17:50      22    32.4     20.73        74.0      78.1      65.7       8      18     337     329    1007    0.00
    04/27/2017 18:00      24    33.5     20.73        73.2      78.1      65.7       9      20     340      10    1007    0.00
    04/27/2017 18:10      24    33.8     20.73        72.8      78.1      65.7       9      25     344     331    1007    0.00
    04/27/2017 18:20      25    34.2     20.73        72.6      78.1      65.7       7      16     351     337    1007    0.00
    04/27/2017 18:30      26    34.9     20.73        72.2      78.1      65.7       8      25     343     345    1007    0.00
    04/27/2017 18:40      26    35.1     20.73        71.7      78.1      65.7      10      25     346     337    1007    0.00
    04/27/2017 18:50      27    35.5     20.73        71.5      78.1      65.7       8      18     344     347    1007    0.00
    04/27/2017 19:00      28    35.8     20.73        71.2      78.1      65.7       7      21     342       2    1007    0.00
    04/27/2017 19:10      29    36.4     20.73        71.0      78.1      65.7       9      22     339     311    1007    0.00
    04/27/2017 19:20      29    37.0     20.73        70.8      78.1      65.7       8      20     341     351    1007    0.00
    04/27/2017 19:30      30    37.6     20.73        70.6      78.1      65.7       8      18     340     323    1008    0.00
    04/27/2017 19:40      31    38.0     20.73        70.5      78.1      65.7      10      23     342     341    1008    0.00
    04/27/2017 19:50      30    38.0     20.73        70.4      78.1      65.7       8      24     342     335    1008    0.00
    04/27/2017 20:00      30    37.7     20.73        70.5      78.1      65.7       8      17     343     345    1008    0.00
    04/27/2017 20:10      30    37.5     20.73        70.4      78.1      65.7       9      19     344     354    1008    0.00
    04/27/2017 20:20      30    37.5     20.73        70.3      78.1      65.7       8      26     344     342    1008    0.00
    04/27/2017 20:30      29    36.6     20.73        70.1      78.1      65.7       8      22     344     337    1008    0.00
    04/27/2017 20:40      27    34.6     20.73        70.0      78.1      65.7       9      22     341     315    1008    0.00
    04/27/2017 20:50      24    32.4     20.73        69.9      78.1      65.7      11      25     342      33    1008    0.00
    04/27/2017 21:00      23    30.8     20.73        69.8      78.1      65.7      11      26     338     344    1008    0.00
    04/27/2017 21:10      22    29.9     20.73        69.7      78.1      65.7       9      21     339     302    1008    0.00
    04/27/2017 21:20      21    28.7     20.73        69.6      78.1      65.7       9      20     340     326    1008    0.00
    04/27/2017 21:30      19    27.0     20.73        69.5      78.1      65.7       9      21     340     345    1008    0.00
    04/27/2017 21:40      21    26.9     20.73        69.6      78.1      65.7       9      26     345     305    1008    0.00
    04/27/2017 21:50      21    27.9     20.73        69.3      78.1      65.7       8      23     342     347    1008    0.00
    04/27/2017 22:00      21    28.2     20.73        69.2      78.1      65.7      10      23     334     344    1008    0.00
    04/27/2017 22:10      22    28.5     20.73        69.1      78.1      65.7       9      25     344      20    1008    0.00
    04/27/2017 22:20      23    29.0     20.73        68.8      78.1      65.7       7      25     341     346    1008    0.00
    04/27/2017 22:30      23    29.2     20.73        68.7      78.1      65.7       8      26     336     307    1008    0.00
    04/27/2017 22:40      22    28.6     20.73        68.5      78.1      65.7       7      23     345      13    1008    0.00
    04/27/2017 22:50      23    28.6     20.73        68.4      78.1      65.7      11      24     339     299    1008    0.00
    04/27/2017 23:00      23    28.8     20.73        68.1      78.1      65.7       8      20     341     329    1008    0.00
    04/27/2017 23:10      23    28.8     20.73        68.0      78.1      65.7      11      23     335     337    1008    0.00
    04/27/2017 23:20      22    28.3     20.73        67.8      78.1      65.7      10      26     341     352    1008    0.00
    04/27/2017 23:30      21    27.3     20.73        67.7      78.1      65.7      10      29     333     338    1008    0.00
    04/27/2017 23:40      22    27.2     20.73        67.6      78.1      65.7      10      28     338     329    1008    0.00
    04/27/2017 23:50      22    26.9     20.73        67.3      78.1      65.7       9      21     337     344    1008    0.00
    04/28/2017 00:00      22    26.8     20.73        67.2      78.1      65.7      12      30     339       2    1008    0.00
    04/28/2017 00:10      23    27.7     20.73        67.0      67.2      66.8      12      28     337     327    1008    0.00
    04/28/2017 00:20      24    28.5     20.73        66.8      67.2      66.6      12      28     336     333    1007    0.00
    04/28/2017 00:30      25    29.1     20.73        66.6      67.2      66.4      11      22     337     297    1007    0.00
    04/28/2017 00:40      26    29.9     20.73        66.4      67.2      66.2      11      29     335     335    1007    0.00
    04/28/2017 00:50      26    30.3     20.73        66.3      67.2      66.1      12      29     332     332    1007    0.00
    04/28/2017 01:00      25    29.8     20.73        66.4      67.2      66.1      11      28     333     318    1007    0.00
    04/28/2017 01:10      25    29.9     20.73        66.2      67.2      66.0       9      29     332     345    1007    0.00
    04/28/2017 01:20      25    29.4     20.73        66.2      67.2      66.0      10      24     338     329    1007    0.00
    04/28/2017 01:30      25    29.0     20.73        66.0      67.2      65.8      11      23     342     336    1007    0.00
    04/28/2017 01:40      25    28.8     20.73        65.9      67.2      65.8      12      24     333     342    1007    0.00
    04/28/2017 01:50      24    28.5     20.73        65.8      67.2      65.5       9      30     337     319    1007    0.00
    04/28/2017 02:00      24    28.1     20.73        65.7      67.2      65.5       7      21     340     334    1007    0.00
    04/28/2017 02:10      24    27.8     20.73        65.7      67.2      65.5      10      29     342     328    1007    0.00
    04/28/2017 02:20      24    27.7     20.73        65.5      67.2      65.2       7      21     345     335    1007    0.00
    04/28/2017 02:30      25    28.1     20.73        65.0      67.2      64.7       4      12      11      60    1008    0.00
    04/28/2017 02:40      25    28.4     20.73        64.8      67.2      64.5       3      14      21      43    1008    0.00
    04/28/2017 02:50      25    28.3     20.73        64.6      67.2      64.3       3      13      19     330    1008    0.00
    04/28/2017 03:00      24    27.7     20.73        64.8      67.2      64.3       7      18     339     354    1008    0.00
    04/28/2017 03:10      24    27.3     20.73        64.9      67.2      64.3       9      24     324      84    1007    0.00
    04/28/2017 03:20      23    27.0     20.73        65.0      67.2      64.3      10      19     307     305    1007    0.00
    04/28/2017 03:30      25    27.5     20.73        64.8      67.2      64.3       6      16     334     303    1007    0.00
    04/28/2017 03:40      26    28.1     20.73        64.4      67.2      64.0       4      12       7     303    1007    0.00
    04/28/2017 03:50      25    28.4     20.73        63.9      67.2      63.7       5      12       3      59    1007    0.00
    04/28/2017 04:00      26    28.3     20.73        64.3      67.2      63.7       9      21     352     348    1007    0.00
    04/28/2017 04:10      26    28.6     20.73        64.3      67.2      63.7       9      26     357     334    1007    0.00
    04/28/2017 04:20      25    28.2     20.73        64.0      67.2      63.7       9      21     353     329    1007    0.00
    04/28/2017 04:30      26    28.1     20.73        64.3      67.2      63.7       8      21     346     341    1007    0.00
    04/28/2017 04:40      26    28.6     20.73        63.9      67.2      63.6       8      19     347     306    1007    0.00
    04/28/2017 04:50      27    28.5     20.73        64.0      67.2      63.6       7      20     351     329    1008    0.00
    04/28/2017 05:00      29    29.5     20.73        63.6      67.2      63.1       8      19      21      82    1008    0.00
    04/28/2017 05:10      28    29.9     20.73        62.9      67.2      62.7       6      14      31      48    1008    0.00
    04/28/2017 05:20      29    30.1     20.73        62.7      67.2      62.4       6      16      28      28    1008    0.00
    04/28/2017 05:30      28    29.7     20.73        62.6      67.2      62.3       9      23     346     322    1008    0.00
    04/28/2017 05:40      27    28.9     20.73        63.1      67.2      62.3      12      25     335     302    1008    0.00
    04/28/2017 05:50      27    28.8     20.73        63.2      67.2      62.3      10      21     340     328    1009    0.00
    04/28/2017 06:00      27    28.9     20.73        63.3      67.2      62.3       7      19     349     349    1009    0.00
    04/28/2017 06:10      28    29.3     20.73        63.6      67.2      62.3       5      12     357     346    1009    0.00
    04/28/2017 06:20      29    30.6     20.73        63.5      67.2      62.3       6      19       0     344    1009    0.00
    04/28/2017 06:30      28    30.8     20.73        63.4      67.2      62.3       4      14       0     341    1009    0.00
    04/28/2017 06:40      28    30.3     20.73        64.3      67.2      62.3       5      18     350     341    1009    0.00
    04/28/2017 06:50      28    30.8     20.73        64.2      67.2      62.3       7      17     355      20    1009    0.00
    04/28/2017 07:00      26    30.0     20.73        64.3      67.2      62.3       8      18     349     265    1009    0.00
    04/28/2017 07:10      26    28.9     20.73        65.0      67.2      62.3      11      25     332     319    1009    0.00
    04/28/2017 07:20      26    29.5     20.73        64.9      67.2      62.3      12      25     335     317    1009    0.00
    04/28/2017 07:30      26    30.0     20.73        65.3      67.2      62.3       9      19     330     326    1010    0.00
    04/28/2017 07:40      24    29.4     20.73        66.1      67.2      62.3       8      22     343     348    1010    0.00
    04/28/2017 07:50      25    28.4     20.73        66.4      67.2      62.3       8      18     332     346    1010    0.00
    04/28/2017 08:00      25    29.4     20.73        66.3      67.2      62.3       7      16     331     336    1010    0.00
    04/28/2017 08:10      24    29.4     20.73        66.7      67.2      62.3       8      21     343       6    1010    0.00
    04/28/2017 08:20      23    28.7     20.73        66.9      67.3      62.3      10      22     332     337    1010    0.00
    04/28/2017 08:30      24    28.9     20.73        67.3      68.3      62.3       6      17     332     342    1010    0.00
    04/28/2017 08:40      21    27.6     20.73        68.5      69.1      62.3       9      22     334     310    1010    0.00
    04/28/2017 08:50      22    27.4     20.73        68.3      69.1      62.3      10      24     331     310    1010    0.00
    04/28/2017 09:00      20    26.3     20.73        68.5      69.1      62.3       9      27     325     352    1010    0.00
    04/28/2017 09:10      19    24.3     20.73        69.0      69.5      62.3       9      27     332      -0    1010    0.00
    04/28/2017 09:20      17    24.3     20.73        69.0      69.5      62.3      12      29     330     306    1010    0.00
    04/28/2017 09:30      18    23.7     20.73        69.6      70.0      62.3      10      21     330     341    1010    0.00
    04/28/2017 09:40      17    23.6     20.73        69.9      70.4      62.3      10      24     320     337    1010    0.00
    04/28/2017 09:50      16    23.6     20.73        70.7      71.2      62.3       8      17     336     333    1010    0.00
    04/28/2017 10:00      16    23.6     20.73        70.9      71.3      62.3      10      25     333     348    1010    0.00
    04/28/2017 10:10      16    23.9     20.73        70.6      71.3      62.3      11      21     340     334    1010    0.00
    04/28/2017 10:20      16    23.2     20.73        71.4      71.9      62.3       9      26     338     311    1010    0.00
    04/28/2017 10:30      15    22.6     20.73        71.7      71.9      62.3      10      23     351       4    1010    0.00
    04/28/2017 10:40      16    23.0     20.73        72.2      73.0      62.3       8      22     345     348    1010    0.00
    04/28/2017 10:50      15    22.6     20.73        73.3      73.5      62.3       9      20     347     328    1009    0.00
    04/28/2017 11:00      14    21.4     20.73        73.6      74.0      62.3       8      26     338       2    1009    0.00
    04/28/2017 11:10      15    21.8     20.73        73.6      74.0      62.3       9      21     337     319    1009    0.00
    04/28/2017 11:20      15    22.5     20.73        73.1      74.0      62.3      11      26     333     349    1009    0.00
    04/28/2017 11:30      15    22.9     20.73        73.0      74.0      62.3      11      24     332     352    1009    0.00
    04/28/2017 11:40      13    21.8     20.73        73.6      74.1      62.3      10      27     332       1    1009    0.00
    04/28/2017 11:50      15    21.6     20.73        73.8      74.4      62.3       9      22     332     321    1009    0.00
    04/28/2017 12:00      14    21.7     20.73        74.3      74.9      62.3       9      19     328      14    1009    0.00
    04/28/2017 12:10      13    22.1     20.73        74.7      75.8      62.3       7      21     338     292    1009    0.00
    04/28/2017 12:20      14    21.2     20.73        75.4      76.1      62.3       8      18     324       2    1009    0.00
    04/28/2017 12:30      13    21.6     20.73        76.2      76.8      62.3       7      17     328     341    1009    0.00
    04/28/2017 12:40      11    19.4     20.73        75.7      76.8      62.3       9      21     333     325    1009    0.00
    04/28/2017 12:50       9    16.2     20.73        76.2      76.8      62.3       9      22     335     350    1008    0.00
    04/28/2017 13:00       9    15.0     20.73        76.4      76.8      62.3      10      21     329     344    1008    0.00
    04/28/2017 13:10      10    15.7     20.73        76.8      77.4      62.3       9      25     323     311    1008    0.00
    04/28/2017 13:20      10    14.5     20.73        76.5      77.4      62.3      10      27     330     318    1008    0.00
    04/28/2017 13:30      11    14.6     20.73        76.1      77.4      62.3      11      27     324     302    1008    0.00
    04/28/2017 13:40      10    15.4     20.73        76.0      77.4      62.3      12      29     328     341    1008    0.00
    04/28/2017 13:50       9    15.4     20.73        76.1      77.4      62.3      10      27     329     351    1008    0.00
    04/28/2017 14:00       9    14.8     20.73        76.2      77.4      62.3       9      22     326     344    1008    0.00
    04/28/2017 14:10       9    14.0     20.73        77.0      77.4      62.3      10      21     325     295    1007    0.00
    04/28/2017 14:20       9    13.7     20.73        76.6      77.4      62.3      10      27     324     323    1007    0.00
    04/28/2017 14:30       9    14.9     20.73        76.4      77.4      62.3      13      27     326     343    1007    0.00
    04/28/2017 14:40       9    14.0     20.73        76.2      77.4      62.3      11      22     325     334    1007    0.00
    04/28/2017 14:50       9    14.1     20.73        76.0      77.4      62.3      12      23     323     322    1007    0.00
    04/28/2017 15:00       9    13.6     20.73        76.2      77.4      62.3      11      27     324     338    1007    0.00
    04/28/2017 15:10       9    12.3     20.73        75.9      77.4      62.3      11      25     325     318    1007    0.00
    04/28/2017 15:20       9    12.3     20.73        75.8      77.4      62.3      11      27     330     352    1007    0.00
    04/28/2017 15:30       9    12.4     20.73        75.8      77.4      62.3      11      26     337     327    1007    0.00
    04/28/2017 15:40       9    12.5     20.73        75.5      77.4      62.3      11      26     337     332    1007    0.00
    04/28/2017 15:50       9    11.3     20.73        75.6      77.4      62.3      10      23     329     341    1007    0.00
    04/28/2017 16:00       7    11.0     20.73        75.6      77.4      62.3      11      29     339     349    1007    0.00
    04/28/2017 16:10       9    10.3     20.73        75.4      77.4      62.3      11      27     326     335    1007    0.00
    04/28/2017 16:20       9    11.9     20.73        75.4      77.4      62.3       9      24     333     320    1007    0.00
    04/28/2017 16:30       9    12.5     20.73        75.1      77.4      62.3      11      28     330       3    1007    0.00
    04/28/2017 16:40      10    12.9     20.73        74.7      77.4      62.3      11      25     326     329    1007    0.00
    04/28/2017 16:50      10    13.3     20.73        74.4      77.4      62.3      10      24     333     314    1007    0.00
    04/28/2017 17:00      10    13.7     20.73        73.7      77.4      62.3      10      21     336     333    1007    0.00
    04/28/2017 17:10      11    14.5     20.73        73.7      77.4      62.3       7      18     343     354    1007    0.00
    04/28/2017 17:20      11    15.6     20.73        73.3      77.4      62.3       7      18     330     323    1007    0.00
    04/28/2017 17:30      11    15.8     20.73        72.7      77.4      62.3       7      17     343     354    1008    0.00
    04/28/2017 17:40      12    16.4     20.73        72.6      77.4      62.3       5      17     342     328    1008    0.00
    04/28/2017 17:50      13    17.3     20.73        72.3      77.4      62.3       7      20     341     343    1008    0.00
    04/28/2017 18:00      13    18.1     20.73        71.6      77.4      62.3       6      17     340     337    1008    0.00
    04/28/2017 18:10      14    18.5     20.73        71.2      77.4      62.3       9      23     340     337    1008    0.00
    04/28/2017 18:20      14    19.1     20.73        70.7      77.4      62.3       9      20     341     310    1008    0.00
    04/28/2017 18:30      14    19.1     20.73        70.4      77.4      62.3       6      18     334     330    1009    0.00
    04/28/2017 18:40      14    19.1     20.73        70.0      77.4      62.3       6      14     318     348    1008    0.00
    04/28/2017 18:50      14    18.9     20.73        69.8      77.4      62.3       7      21     322     306    1008    0.00
    04/28/2017 19:00      14    18.5     20.73        69.8      77.4      62.3       7      19     330     326    1009    0.00
    04/28/2017 19:10      14    18.4     20.73        69.7      77.4      62.3       5      14     347      14    1009    0.00
    04/28/2017 19:20      15    18.8     20.73        69.4      77.4      62.3       5      13     349     319    1009    0.00
    04/28/2017 19:30      15    19.5     20.73        69.3      77.4      62.3       6      18     339      17    1009    0.00
    04/28/2017 19:40      15    20.0     20.73        69.2      77.4      62.3       9      22     336     340    1009    0.00
    04/28/2017 19:50      16    20.7     20.73        69.1      77.4      62.3      10      20     337     328    1009    0.00
    04/28/2017 20:00      16    21.2     20.73        69.0      77.4      62.3      11      25     334     333    1009    0.00
    04/28/2017 20:10      17    21.6     20.73        68.8      77.4      62.3      10      22     336     335    1009    0.00
    04/28/2017 20:20      17    21.9     20.73        68.8      77.4      62.3      11      23     333     309    1009    0.00
    04/28/2017 20:30      17    22.1     20.73        68.6      77.4      62.3      11      27     336     326    1009    0.00
    04/28/2017 20:40      17    22.4     20.73        68.5      77.4      62.3       9      22     337     309    1010    0.00
    04/28/2017 20:50      18    22.5     20.73        68.3      77.4      62.3      10      20     335     351    1010    0.00
    04/28/2017 21:00      17    22.4     20.73        68.2      77.4      62.3       9      23     330     328    1010    0.00
    04/28/2017 21:10      17    22.1     20.73        68.1      77.4      62.3       8      24     327     341    1010    0.00
    04/28/2017 21:20      17    21.9     20.73        68.1      77.4      62.3       8      19     332     335    1010    0.00
    04/28/2017 21:30      17    21.7     20.73        68.0      77.4      62.3       8      18     331     327    1011    0.00
    04/28/2017 21:40      17    21.5     20.73        67.8      77.4      62.3       8      17     331     326    1011    0.00
    04/28/2017 21:50      17    21.2     20.73        67.6      77.4      62.3       8      18     330     327    1011    0.00
    04/28/2017 22:00      17    20.9     20.73        67.5      77.4      62.3       7      17     328     336    1011    0.00
    04/28/2017 22:10      17    20.9     20.73        67.3      77.4      62.3       7      16     330     340    1011    0.00
    04/28/2017 22:20      17    20.8     20.73        67.1      77.4      62.3       6      14     333     343    1011    0.00
    04/28/2017 22:30      17    20.5     20.73        67.2      77.4      62.3       5      11     339     355    1011    0.00
    04/28/2017 22:40      17    20.4     20.73        67.0      77.4      62.3       6      14     340     339    1011    0.00
    04/28/2017 22:50      16    20.1     20.73        67.0      77.4      62.3       7      16     337     315    1011    0.00
    04/28/2017 23:00      16    19.6     20.73        67.0      77.4      62.3       8      16     339     347    1011    0.00
    04/28/2017 23:10      15    18.2     20.73        67.4      77.4      62.3       8      17     338      15    1011    0.00
    04/28/2017 23:20      15    17.9     20.73        67.4      77.4      62.3       8      17     345     343    1011    0.00
    04/28/2017 23:30      14    16.9     20.73        67.5      77.4      62.3       8      21     346     340    1011    0.00
    04/28/2017 23:40      13    16.2     20.73        67.2      77.4      62.3       7      18     349     330    1011    0.00
    04/28/2017 23:50      13    15.4     20.73        67.0      77.4      62.3       8      21     347     350    1011    0.00
    04/29/2017 00:00      13    14.9     20.73        66.6      77.4      62.3       7      20     341     343    1011    0.00
    04/29/2017 00:10      13    14.3     20.73        66.3      66.5      65.8       7      22     352     345    1012    0.00
    04/29/2017 00:20      13    13.4     20.73        65.9      66.5      65.7       7      22     352     342    1012    0.00
    04/29/2017 00:30      12    12.7     20.73        65.7      66.5      65.5       7      19     349      17    1012    0.00
    04/29/2017 00:40      12    11.7     20.73        65.6      66.5      65.2       5      12     346     334    1012    0.00
    04/29/2017 00:50      11    10.1     20.73        65.7      66.5      65.2       6      17     355     332    1012    0.00
    04/29/2017 01:00      11     9.8     20.73        65.7      66.5      65.2       4      15      10     321    1012    0.00
    04/29/2017 01:10      11     9.8     20.73        65.3      66.5      65.0       4      10      15     318    1012    0.00
    04/29/2017 01:20      11     9.5     20.73        65.3      66.5      65.0       4      11       9     344    1012    0.00
    04/29/2017 01:30      11     9.0     20.73        65.5      66.5      65.0       5      13      17      -0    1012    0.00
    04/29/2017 01:40      11     8.9     20.73        65.6      66.5      65.0       4      13      12     335    1012    0.00
    04/29/2017 01:50      11     9.1     20.73        65.6      66.5      65.0       4      11      48      41    1012    0.00
    04/29/2017 02:00      11     9.5     20.73        65.7      66.5      65.0       4      11      46       4    1012    0.00
    04/29/2017 02:10      11     9.8     20.73        66.2      66.5      65.0       5      15      34      13    1012    0.00
    04/29/2017 02:20      11    10.1     20.73        66.2      66.5      65.0       5      13      29     342    1012    0.00
    04/29/2017 02:30      11    10.3     20.73        66.3      66.5      65.0       6      17      30     122    1012    0.00
    04/29/2017 02:40      11    10.1     20.73        66.3      66.6      65.0       7      18      23      39    1012    0.00
    04/29/2017 02:50      11    10.3     20.73        66.2      66.6      65.0       6      17      18      12    1013    0.00
    04/29/2017 03:00      11    10.2     20.73        66.0      66.6      65.0       5      14      16      11    1013    0.00
    04/29/2017 03:10      11    10.2     20.73        65.6      66.6      65.0       4      11      20      -0    1013    0.00
    04/29/2017 03:20      11    10.1     20.73        65.5      66.6      65.0       4      16       0      -0    1013    0.00
    04/29/2017 03:30      12    10.2     20.73        65.2      66.6      64.9       5      11     357     354    1013    0.00
    04/29/2017 03:40      11    10.1     20.73        65.0      66.6      64.7       7      18     355     337    1013    0.00
    04/29/2017 03:50      11     9.7     20.73        64.9      66.6      64.7       7      19     359     335    1013    0.00
    04/29/2017 04:00      11     9.0     20.73        65.0      66.6      64.7       7      20       3     337    1013    0.00
    04/29/2017 04:10      11     8.8     20.73        64.9      66.6      64.6       8      21     352     330    1013    0.00
    04/29/2017 04:20      11     8.7     20.73        64.8      66.6      64.6       7      17     358      54    1013    0.00
    04/29/2017 04:30      11     8.7     20.73        64.6      66.6      64.3       6      14     356      46    1013    0.00
    04/29/2017 04:40      11     8.8     20.73        64.2      66.6      64.0       7      16     354     333    1013    0.00
    04/29/2017 04:50      11     8.8     20.73        64.2      66.6      63.9       6      20     354     340    1013    0.00
    04/29/2017 05:00      11     8.6     20.73        64.0      66.6      63.8       6      23       2     330    1013    0.00
    04/29/2017 05:10      11     8.2     20.73        64.1      66.6      63.7       6      17      12      18    1013    0.00
    04/29/2017 05:20      11     8.0     20.73        64.1      66.6      63.7       5      16       7     331    1014    0.00
    04/29/2017 05:30      11     8.2     20.73        64.0      66.6      63.7       4      14      10     339    1014    0.00
    04/29/2017 05:40      11     8.5     20.73        64.1      66.6      63.7       6      16      53      25    1014    0.00
    04/29/2017 05:50      11     8.9     20.73        64.1      66.6      63.7       5      19      20     310    1014    0.00
    04/29/2017 06:00      12     9.3     20.73        64.2      66.6      63.7       4      14      16     319    1014    0.00
    04/29/2017 06:10      11     9.9     20.73        64.4      66.6      63.7       5      13     353       7    1014    0.00
    04/29/2017 06:20      12    10.2     20.73        64.7      66.6      63.7       5      12     355     349    1015    0.00
    04/29/2017 06:30      11    10.4     20.73        65.1      66.6      63.7       5      15     347     347    1015    0.00
    04/29/2017 06:40      12    10.5     20.73        65.4      66.6      63.7       7      18     352     309    1015    0.00
    04/29/2017 06:50      11    10.9     20.73        65.8      66.6      63.7       6      14     353     308    1015    0.00
    04/29/2017 07:00      11    10.4     20.73        66.3      66.6      63.7       7      14     356      22    1016    0.00
    04/29/2017 07:10      11    10.6     20.73        66.8      67.1      63.7       6      15     356     315    1016    0.00
    04/29/2017 07:20      11    10.8     20.73        67.0      67.4      63.7       6      16     355     343    1016    0.00
    04/29/2017 07:30      10    10.7     20.73        67.7      68.0      63.7       6      16      17      22    1016    0.00
    04/29/2017 07:40      10    10.3     20.73        68.1      68.5      63.7       6      15      17     346    1016    0.00
    04/29/2017 07:50      10    10.7     20.73        68.6      68.9      63.7       5      12       9     355    1016    0.00
    04/29/2017 08:00      10    10.5     20.73        68.8      69.0      63.7       7      15      16     354    1016    0.00
    04/29/2017 08:10      10    10.4     20.73        69.3      69.7      63.7       6      16      15      29    1016    0.00
    04/29/2017 08:20      10    10.4     20.73        69.5      69.9      63.7       8      25       0     319    1016    0.00
    04/29/2017 08:30      10     9.3     20.73        69.3      69.9      63.7       9      19      17      12    1016    0.00
    04/29/2017 08:40       9     9.6     20.73        69.8      70.2      63.7      10      24       2     266    1016    0.00
    04/29/2017 08:50       9     9.9     20.73        70.2      70.5      63.7       8      18      24      43    1016    0.00
    04/29/2017 09:00      10    10.5     20.73        70.5      70.9      63.7       8      21     353     338    1016    0.00
    04/29/2017 09:10       9    10.5     20.73        71.1      71.6      63.7       7      18      18      13    1016    0.00
    04/29/2017 09:20       9    10.8     20.73        71.7      72.2      63.7       7      24     360     354    1016    0.00
    04/29/2017 09:30       9    10.0     20.73        71.9      72.2      63.7       8      21       3     337    1016    0.00
    04/29/2017 09:40       8    10.1     20.73        72.6      73.1      63.7       8      17     357      20    1016    0.00
    04/29/2017 09:50       8     9.7     20.73        73.0      73.7      63.7       7      22       9     351    1016    0.00
    04/29/2017 10:00       8    10.0     20.73        74.0      74.5      63.7       7      22       5     340    1016    0.00
    04/29/2017 10:10       8    10.1     20.73        74.2      74.6      63.7       8      17       0     329    1016    0.00
    04/29/2017 10:20       8    10.3     20.73        74.7      75.4      63.7       8      19      22      69    1016    0.00
    04/29/2017 10:30       8    11.0     20.73        75.1      76.0      63.7       6      14      22      32    1016    0.00
    04/29/2017 10:40       8     9.9     20.73        75.3      76.0      63.7       8      19      30      39    1016    0.00
    04/29/2017 10:50       8    10.0     20.73        75.4      76.1      63.7       8      16      37      83    1016    0.00
    04/29/2017 11:00       8    10.4     20.73        75.9      76.3      63.7       7      17      30      15    1016    0.00
    04/29/2017 11:10       8    10.9     20.73        76.3      76.8      63.7       7      18      42      40    1016    0.00
    04/29/2017 11:20       7    10.4     20.73        76.8      77.3      63.7       8      19      21     344    1016    0.00
    04/29/2017 11:30       7    10.1     20.73        77.1      78.1      63.7       7      20      22     100    1016    0.00
    04/29/2017 11:40       8     9.8     20.73        77.8      79.0      63.7       7      18      33      34    1016    0.00
    04/29/2017 11:50       7     8.8     20.73        78.4      79.0      63.7       8      18       9      68    1015    0.00
    04/29/2017 12:00       7    10.1     20.73        78.7      79.3      63.7       8      18     356      17    1015    0.00
    04/29/2017 12:10       7     9.8     20.73        79.2      79.6      63.7       8      19       6      14    1015    0.00
    04/29/2017 12:20       7    10.6     20.73        79.6      80.1      63.7       7      18     356     335    1015    0.00
    04/29/2017 12:30       7    10.8     20.73        80.1      80.6      63.7       7      16     349     355    1015    0.00
    04/29/2017 12:40       7    10.2     20.73        80.6      81.3      63.7       7      20       2     329    1015    0.00
    04/29/2017 12:50       7    10.3     20.73        80.6      81.4      63.7       6      14      13      31    1015    0.00
    04/29/2017 13:00       6    10.0     20.73        81.5      81.9      63.7       6      14      11      52    1015    0.00
    04/29/2017 13:10       6     9.2     20.73        81.7      82.2      63.7       6      22      16      -0    1015    0.00
    04/29/2017 13:20       6     8.7     20.73        80.8      82.2      63.7       8      19      25      48    1015    0.00
    04/29/2017 13:30       6     8.1     20.73        81.0      82.2      63.7       8      22      24      55    1015    0.00
    04/29/2017 13:40       7     8.9     20.73        81.6      82.2      63.7       6      14      19     354    1015    0.00
    04/29/2017 13:50       6     9.5     20.73        82.4      82.8      63.7       8      17       0     334    1014    0.00
    04/29/2017 14:00       6     9.4     20.73        83.1      83.6      63.7       5      17      11     350    1014    0.00
    04/29/2017 14:10       6    10.5     20.73        83.9      84.4      63.7       5      16     355     327    1014    0.00
    04/29/2017 14:20       6     9.3     20.73        83.6      84.4      63.7       6      15     353     340    1014    0.00
    04/29/2017 14:30       6     9.6     20.73        83.6      84.4      63.7       6      15     357     334    1014    0.00
    04/29/2017 14:40       6     9.1     20.73        83.3      84.4      63.7       9      19     356     328    1014    0.00
    04/29/2017 14:50       6     8.4     20.73        83.2      84.4      63.7       8      20       8     336    1014    0.00
    04/29/2017 15:00       6     8.7     20.73        83.1      84.4      63.7       6      14       8      53    1014    0.00
    04/29/2017 15:10       6     9.1     20.73        83.8      84.4      63.7       5      12     347       4    1014    0.00
    04/29/2017 15:20       5     8.7     20.73        83.8      84.4      63.7       6      13     358     331    1014    0.00
    04/29/2017 15:30       5     8.4     20.73        83.4      84.4      63.7       7      16      33      60    1014    0.00
    04/29/2017 15:40       6     8.0     20.73        83.3      84.4      63.7       6      14      24      27    1013    0.00
    04/29/2017 15:50       6     8.1     20.73        83.6      84.4      63.7       5      14      25      52    1013    0.00
    04/29/2017 16:00       6     8.4     20.73        83.4      84.4      63.7       6      14      38      42    1013    0.00
    04/29/2017 16:10       6    10.4     20.73        83.1      84.4      63.7       6      12      56      62    1013    0.00
    04/29/2017 16:20       6     9.0     20.73        83.4      84.4      63.7       4      10      72      82    1013    0.00
    04/29/2017 16:30       7    10.6     20.73        83.3      84.4      63.7       5      11      78      77    1013    0.00
    04/29/2017 16:40       6    11.6     20.73        83.0      84.4      63.7       4      11      81      92    1014    0.00
    04/29/2017 16:50       7    11.1     20.73        82.9      84.4      63.7       1       4      92     143    1014    0.00
    04/29/2017 17:00       7    12.6     20.73        82.8      84.4      63.7       4      10      83      98    1013    0.00
    04/29/2017 17:10       9    14.8     20.73        82.5      84.4      63.7       4       8      76      69    1014    0.00
    04/29/2017 17:20       7    14.8     20.73        81.7      84.4      63.7       4       8      69      56    1014    0.00
    04/29/2017 17:30       9    15.8     20.73        81.0      84.4      63.7       3       7      75      79    1014    0.00
    04/29/2017 17:40       8    14.0     20.73        80.6      84.4      63.7       2       5      84      88    1014    0.00
    04/29/2017 17:50       8    15.0     20.73        80.7      84.4      63.7       0       4     331     339    1014    0.00
    04/29/2017 18:00      11    18.5     20.73        78.7      84.4      63.7       3       7     281     232    1014    0.00
    04/29/2017 18:10      12    19.5     20.73        76.1      84.4      63.7       4      10     281     282    1014    0.00
    04/29/2017 18:20      13    19.2     20.73        74.3      84.4      63.7       5       9     286     293    1014    0.00
    04/29/2017 18:30      14    19.3     20.73        72.4      84.4      63.7       5      10     286     254    1014    0.00
    04/29/2017 18:40      15    19.9     20.73        71.2      84.4      63.7       4       9     268     289    1015    0.00
    04/29/2017 18:50      15    20.4     20.73        70.1      84.4      63.7       4       9     215     201    1015    0.00
    04/29/2017 19:00      16    20.5     20.73        69.9      84.4      63.7       5      10     246     257    1015    0.00
    04/29/2017 19:10      16    20.8     20.73        69.2      84.4      63.7       4       8     218     244    1015    0.00
    04/29/2017 19:20      17    21.1     20.73        68.7      84.4      63.7       3       9     236     261    1015    0.00
    04/29/2017 19:30      17    21.1     20.73        68.2      84.4      63.7       3       6     231     223    1015    0.00
    04/29/2017 19:40      17    21.4     20.73        68.0      84.4      63.7       4       8     258     258    1015    0.00
    04/29/2017 19:50      17    21.1     20.73        68.3      84.4      63.7       5       7     258     246    1015    0.00
    04/29/2017 20:00      17    21.4     20.73        68.0      84.4      63.7       4       8     254     250    1016    0.00
    04/29/2017 20:10      19    22.3     20.73        67.3      84.4      63.7       2       5     241     244    1016    0.00
    04/29/2017 20:20      19    24.0     20.73        66.6      84.4      63.7       1       5     267     259    1016    0.00
    04/29/2017 20:30      20    23.7     20.73        66.3      84.4      63.7       2       5     258     259    1016    0.00
    04/29/2017 20:40      21    25.1     20.73        65.9      84.4      63.7       0       4     250     252    1016    0.00
    04/29/2017 20:50      21    24.9     20.73        65.7      84.4      63.7       2       4     273     242    1016    0.00
    04/29/2017 21:00      22    25.8     20.73        65.4      84.4      63.7       2       4     261     258    1016    0.00
    04/29/2017 21:10      23    25.5     20.73        64.8      84.4      63.7       2       4     269     246    1016    0.00
    04/29/2017 21:20      25    27.2     20.73        64.0      84.4      63.6       0       3     241     234    1016    0.00
    04/29/2017 21:30      25    26.8     20.73        63.2      84.4      62.7       1       4     264     253    1016    0.00
    04/29/2017 21:40      26    27.2     20.73        62.9      84.4      62.5       2       4     252     256    1016    0.00
    04/29/2017 21:50      25    26.3     20.73        62.6      84.4      62.4       0       1     259     253    1016    0.00
    04/29/2017 22:00      27    26.5     20.73        62.3      84.4      61.9       0       2     202     201    1016    0.00
    04/29/2017 22:10      28    27.2     20.73        61.9      84.4      61.7       0       2     185     192    1016    0.00
    04/29/2017 22:20      27    28.3     20.73        61.8      84.4      61.6       0       2     167     215    1016    0.00
    04/29/2017 22:30      27    27.8     20.73        61.6      84.4      61.2       0       1     227     182    1016    0.00
    04/29/2017 22:40      27    27.9     20.73        61.3      84.4      61.1       0       2     162     176    1016    0.00
    04/29/2017 22:50      26    27.4     20.73        62.0      84.4      61.1       2       5     143     128    1016    0.00
    04/29/2017 23:00      26    27.2     20.73        62.2      84.4      61.1       2       5     118     137    1017    0.00
    04/29/2017 23:10      26    27.1     20.73        62.3      84.4      61.1       1       5     111     138    1017    0.00
    04/29/2017 23:20      26    27.3     20.73        62.0      84.4      61.1       1       4      54      67    1017    0.00
    04/29/2017 23:30      29    27.8     20.73        62.2      84.4      61.1       1       3     122     191    1016    0.00
    04/29/2017 23:40      28    27.9     20.73        61.3      84.4      61.1       0       2     149     156    1016    0.00
    04/29/2017 23:50      29    28.5     20.73        61.0      84.4      60.6       0       4     131     139    1017    0.00
    04/30/2017 00:00      29    28.2     20.73        61.2      84.4      60.6       1       3     131      97    1017    0.00
    04/30/2017 00:10      28    28.4     20.73        60.6      61.1      60.3       0       3     117      44    1017    0.00
    04/30/2017 00:20      27    27.6     20.73        60.8      61.1      60.3       0       2     111      56    1017    0.00
    04/30/2017 00:30      27    28.0     20.73        61.6      61.8      60.3       0       2      38      63    1017    0.00
    04/30/2017 00:40      30    28.9     20.73        60.9      61.8      60.0       0       6     360     308    1017    0.00
    04/30/2017 00:50      29    28.4     20.73        60.5      61.8      59.7       0       5     310     348    1017    0.00
    04/30/2017 01:00      27    27.4     20.73        62.1      62.5      59.7       0       2     277     266    1016    0.00